Time;durP1;ratioP1;P1;durP2;ratioP2;P2;SDS_P1;SDS_P2;PMS_P1;PMS_P2;Temp;Humidity;BMP_temperature;BMP_pressure;BME280_temperature;BME280_humidity;BME280_pressure;Samples;Min_cycle;Max_cycle;Signal;HPM_P1;HPM_P2
2022/05/31 00:00:53;;;;;;;;;;;;;;;7.94;59.45;100804.34;5067804;28;20011;-23
2022/05/31 00:03:19;;;;;;;;;;;;;;;7.90;59.40;100803.41;5069339;28;19967;-23
2022/05/31 00:05:44;;;;;;;;;;;;;;;7.85;59.69;100804.28;5070640;28;20007;-23
2022/05/31 00:08:10;;;;;;;;;;;;;;;7.82;59.35;100803.41;5067287;28;19926;-23
2022/05/31 00:10:35;;;;;;;;;;;;;;;7.78;59.70;100796.38;5069033;28;19958;-23
2022/05/31 00:13:00;;;;;;;;;;;;;;;7.76;59.42;100798.13;5064991;28;19912;-23
2022/05/31 00:15:26;;;;;;;;;;;;;;;7.74;59.27;100797.22;5071099;28;19916;-23
2022/05/31 00:17:51;;;;;;;;;;;;;;;7.72;59.39;100798.97;5067642;28;19935;-23
2022/05/31 00:20:17;;;;;;;;;;;;;;;7.70;59.20;100800.69;5067860;28;20352;-23
2022/05/31 00:22:42;;;;;;;;;;;;;;;7.61;59.57;100796.31;5068896;28;19961;-23
2022/05/31 00:25:08;;;;;;;;;;;;;;;7.54;59.33;100795.38;5066565;28;19974;-23
2022/05/31 00:27:33;;;;;;;;;;;;;;;7.50;59.41;100798.84;5071142;28;19920;-23
2022/05/31 00:29:59;;;;;;;;;;;;;;;7.45;59.69;100800.59;5070876;28;19947;-23
2022/05/31 00:32:26;;;;;;;;;;;;;;;7.40;59.36;100800.56;5067980;28;19950;-23
2022/05/31 00:34:52;;;;;;;;;;;;;;;7.37;59.74;100799.66;5068350;28;20299;-23
2022/05/31 00:37:18;;;;;;;;;;;;;;;7.34;59.31;100802.25;5066764;28;19919;-23
2022/05/31 00:39:43;;;;;;;;;;;;;;;7.38;59.18;100802.31;5065016;28;19932;-23
2022/05/31 00:42:12;;;;;;;;;;;;;;;7.34;59.60;100811.03;5068926;28;19958;-23
2022/05/31 00:44:38;;;;;;;;;;;;;;;7.27;59.68;100807.47;5069459;28;20395;-23
2022/05/31 00:47:03;;;;;;;;;;;;;;;7.24;59.69;100820.56;5064816;28;19920;-23
2022/05/31 00:49:36;;;;;;;;;;;;;;;7.23;59.59;100805.69;5065746;28;19994;-23
2022/05/31 00:52:04;;;;;;;;;;;;;;;7.20;59.92;100810.91;5068713;28;19912;-23
2022/05/31 00:54:29;;;;;;;;;;;;;;;7.19;59.75;100802.19;5069153;28;19995;-23
2022/05/31 00:56:55;;;;;;;;;;;;;;;7.15;59.57;100804.75;5061467;28;20041;-23
2022/05/31 00:59:21;;;;;;;;;;;;;;;7.14;59.59;100803.00;5070214;28;20311;-23
2022/05/31 01:01:51;;;;;;;;;;;;;;;7.11;59.84;100793.38;5049718;28;19908;-23
2022/05/31 01:04:17;;;;;;;;;;;;;;;7.10;59.95;100804.72;5067127;28;19916;-23
2022/05/31 01:06:42;;;;;;;;;;;;;;;7.08;59.87;100805.56;5070534;28;19917;-23
2022/05/31 01:09:07;;;;;;;;;;;;;;;7.04;60.23;100795.06;5068745;28;20391;-23
2022/05/31 01:11:39;;;;;;;;;;;;;;;7.05;59.72;100807.34;5067465;28;20399;-23
2022/05/31 01:14:05;;;;;;;;;;;;;;;7.04;59.63;100805.56;5064938;28;19916;-23
2022/05/31 01:16:30;;;;;;;;;;;;;;;7.00;60.12;100809.00;5066285;28;19938;-23
2022/05/31 01:18:55;;;;;;;;;;;;;;;7.01;59.72;100805.53;5070051;28;19916;-23
2022/05/31 01:21:21;;;;;;;;;;;;;;;6.96;60.01;100809.88;5068342;28;20265;-23
2022/05/31 01:24:03;;;;;;;;;;;;;;;6.91;60.33;100796.69;5067805;28;19909;-23
2022/05/31 01:26:37;;;;;;;;;;;;;;;6.92;60.06;100795.88;5068029;28;19924;-23
2022/05/31 01:29:09;;;;;;;;;;;;;;;6.88;59.83;100801.94;5068995;28;19916;-23
2022/05/31 01:31:37;;;;;;;;;;;;;;;6.89;59.87;100805.44;5068342;28;20360;-23
2022/05/31 01:34:15;;;;;;;;;;;;;;;6.86;59.80;100811.53;5067519;28;19912;-23
2022/05/31 01:36:50;;;;;;;;;;;;;;;6.83;59.92;100805.41;5048172;28;19916;-23
2022/05/31 01:39:27;;;;;;;;;;;;;;;6.82;59.85;100804.50;5069489;28;19916;-23
2022/05/31 01:41:57;;;;;;;;;;;;;;;6.81;60.35;100797.53;5068133;28;19913;-23
2022/05/31 01:44:23;;;;;;;;;;;;;;;6.80;60.22;100806.22;5065473;28;19912;-23
2022/05/31 01:46:49;;;;;;;;;;;;;;;6.76;60.35;100800.09;5069843;28;19976;-23
2022/05/31 01:49:14;;;;;;;;;;;;;;;6.75;60.21;100800.97;5064301;28;20291;-23
2022/05/31 01:51:40;;;;;;;;;;;;;;;6.74;60.17;100801.81;5067530;28;19915;-23
2022/05/31 01:54:06;;;;;;;;;;;;;;;6.74;60.22;100803.56;5067547;28;20051;-23
2022/05/31 01:56:31;;;;;;;;;;;;;;;6.75;60.69;100793.09;5065784;28;20027;-23
2022/05/31 01:58:56;;;;;;;;;;;;;;;6.76;60.34;100802.72;5068974;28;19916;-23
2022/05/31 02:01:21;;;;;;;;;;;;;;;6.72;61.12;100803.56;5068983;28;20396;-23
2022/05/31 02:03:47;;;;;;;;;;;;;;;6.73;60.25;100800.06;5068034;28;19916;-23
2022/05/31 02:06:24;;;;;;;;;;;;;;;6.73;60.46;100807.91;5068991;28;20387;-23
2022/05/31 02:08:49;;;;;;;;;;;;;;;6.73;60.44;100793.97;5064606;28;19966;-23
2022/05/31 02:11:14;;;;;;;;;;;;;;;6.72;60.88;100792.19;5065090;28;19955;-23
2022/05/31 02:13:39;;;;;;;;;;;;;;;6.71;60.53;100800.91;5065462;28;19916;-23
2022/05/31 02:16:05;;;;;;;;;;;;;;;6.73;61.03;100802.69;5067233;28;19912;-23
2022/05/31 02:19:15;;;;;;;;;;;;;;;6.70;60.60;100805.25;5067671;28;19908;-23
2022/05/31 02:21:15;;;;;;;;;;;;;;;6.69;60.55;100798.28;5067344;28;19938;-23
2022/05/31 02:23:40;;;;;;;;;;;;;;;6.69;60.88;100798.28;5068887;28;19920;-23
2022/05/31 02:26:05;;;;;;;;;;;;;;;6.70;61.22;100796.53;5068736;28;19912;-23
2022/05/31 02:28:31;;;;;;;;;;;;;;;6.67;61.14;100795.63;5069410;28;19909;-23
2022/05/31 02:30:56;;;;;;;;;;;;;;;6.69;61.05;100795.66;5065827;28;20504;-23
2022/05/31 02:33:21;;;;;;;;;;;;;;;6.70;61.17;100794.78;5067894;28;20426;-23
2022/05/31 02:35:47;;;;;;;;;;;;;;;6.70;60.83;100789.53;5068812;28;19922;-23
2022/05/31 02:38:12;;;;;;;;;;;;;;;6.69;60.97;100798.28;5066870;28;19916;-23
2022/05/31 02:40:37;;;;;;;;;;;;;;;6.68;61.24;100801.78;5068845;28;19999;-24
2022/05/31 02:43:02;;;;;;;;;;;;;;;6.68;61.02;100807.88;5067471;28;19920;-23
2022/05/31 02:45:27;;;;;;;;;;;;;;;6.67;61.69;100802.66;5064337;28;19919;-23
2022/05/31 02:47:53;;;;;;;;;;;;;;;6.68;61.78;100804.38;5069120;28;19938;-23
2022/05/31 02:50:18;;;;;;;;;;;;;;;6.67;61.33;100805.25;5065223;28;19994;-23
2022/05/31 02:52:43;;;;;;;;;;;;;;;6.65;61.60;100814.84;5067688;28;19955;-23
2022/05/31 02:55:09;;;;;;;;;;;;;;;6.64;61.66;100810.47;5069184;28;19924;-23
2022/05/31 02:57:34;;;;;;;;;;;;;;;6.64;61.73;100805.22;5070136;28;20594;-23
2022/05/31 02:59:59;;;;;;;;;;;;;;;6.63;61.52;100804.34;5070079;28;19909;-23
2022/05/31 03:02:24;;;;;;;;;;;;;;;6.62;61.59;100806.94;5068983;28;19917;-23
2022/05/31 03:04:49;;;;;;;;;;;;;;;6.62;61.28;100799.97;5070292;28;19923;-23
2022/05/31 03:07:15;;;;;;;;;;;;;;;6.61;61.97;100800.84;5051348;28;19951;-23
2022/05/31 03:09:40;;;;;;;;;;;;;;;6.60;61.89;100804.31;5072432;28;19913;-23
2022/05/31 03:12:08;;;;;;;;;;;;;;;6.61;61.72;100810.44;5071530;28;19920;-23
2022/05/31 03:14:34;;;;;;;;;;;;;;;6.60;61.77;100813.94;5072458;28;19966;-23
2022/05/31 03:17:03;;;;;;;;;;;;;;;6.59;61.62;100806.91;5069100;28;19916;-23
2022/05/31 03:19:29;;;;;;;;;;;;;;;6.57;61.53;100811.28;5069154;28;20003;-23
2022/05/31 03:21:55;;;;;;;;;;;;;;;6.56;61.81;100809.53;5070033;28;19908;-23
2022/05/31 03:24:23;;;;;;;;;;;;;;;6.54;61.64;100807.75;5065246;28;20408;-23
2022/05/31 03:26:49;;;;;;;;;;;;;;;6.53;61.65;100813.84;5068254;28;20314;-23
2022/05/31 03:29:14;;;;;;;;;;;;;;;6.51;61.56;100810.34;5071954;28;19922;-23
2022/05/31 03:31:39;;;;;;;;;;;;;;;6.49;62.03;100812.06;5069752;28;19916;-23
2022/05/31 03:34:04;;;;;;;;;;;;;;;6.49;61.78;100804.22;5072632;28;19924;-23
2022/05/31 03:36:29;;;;;;;;;;;;;;;6.49;61.72;100800.69;5069045;28;19909;-23
2022/05/31 03:38:55;;;;;;;;;;;;;;;6.48;61.72;100797.22;5064404;28;19912;-23
2022/05/31 03:41:20;;;;;;;;;;;;;;;6.48;62.20;100809.44;5066715;28;19983;-23
2022/05/31 03:43:45;;;;;;;;;;;;;;;6.45;61.88;100796.28;5070185;28;19924;-23
2022/05/31 03:46:11;;;;;;;;;;;;;;;6.45;61.61;100794.56;5067780;28;19920;-23
2022/05/31 03:48:36;;;;;;;;;;;;;;;6.44;61.88;100795.44;5070818;28;19916;-23
2022/05/31 03:51:05;;;;;;;;;;;;;;;6.44;61.92;100792.81;5069930;28;19944;-23
2022/05/31 03:53:31;;;;;;;;;;;;;;;6.45;62.44;100804.16;5071107;28;20683;-23
2022/05/31 03:55:56;;;;;;;;;;;;;;;6.44;62.31;100803.31;5069025;28;19955;-23
2022/05/31 03:58:21;;;;;;;;;;;;;;;6.45;62.11;100807.66;5067002;28;19913;-23
2022/05/31 04:00:46;;;;;;;;;;;;;;;6.45;62.15;100809.41;5071640;28;19915;-23
2022/05/31 04:03:12;;;;;;;;;;;;;;;6.45;62.49;100812.91;5069416;28;19917;-23
2022/05/31 04:05:37;;;;;;;;;;;;;;;6.45;61.85;100815.53;5067586;28;19916;-23
2022/05/31 04:08:06;;;;;;;;;;;;;;;6.46;61.90;100817.28;5070673;28;20751;-23
2022/05/31 04:10:32;;;;;;;;;;;;;;;6.47;62.39;100819.03;5070213;28;19920;-23
2022/05/31 04:12:57;;;;;;;;;;;;;;;6.49;62.06;100817.31;5069067;28;19966;-23
2022/05/31 04:15:23;;;;;;;;;;;;;;;6.51;62.13;100812.94;5069058;28;19924;-23
2022/05/31 04:17:48;;;;;;;;;;;;;;;6.53;61.95;100808.63;5071049;28;19917;-23
2022/05/31 04:20:13;;;;;;;;;;;;;;;6.57;62.35;100809.50;5069700;28;19927;-23
2022/05/31 04:22:38;;;;;;;;;;;;;;;6.62;62.47;100793.84;5070121;28;19931;-23
2022/05/31 04:25:04;;;;;;;;;;;;;;;6.66;62.13;100795.63;5068826;28;19912;-23
2022/05/31 04:27:29;;;;;;;;;;;;;;;6.67;62.44;100795.63;5069463;28;19912;-23
2022/05/31 04:29:54;;;;;;;;;;;;;;;6.70;62.13;100805.25;5067094;28;19913;-23
2022/05/31 04:32:20;;;;;;;;;;;;;;;6.69;62.59;100798.28;5068052;28;19912;-23
2022/05/31 04:34:45;;;;;;;;;;;;;;;6.71;62.24;100796.56;5065406;28;19936;-23
2022/05/31 04:37:10;;;;;;;;;;;;;;;6.72;62.20;100793.06;5065807;28;19916;-23
2022/05/31 04:39:36;;;;;;;;;;;;;;;6.80;62.19;100795.75;5068750;28;20265;-23
2022/05/31 04:42:01;;;;;;;;;;;;;;;6.84;62.23;100792.31;5070348;28;19961;-23
2022/05/31 04:44:26;;;;;;;;;;;;;;;6.89;62.55;100801.06;5069126;28;19919;-23
2022/05/31 04:46:52;;;;;;;;;;;;;;;6.94;62.40;100790.63;5067301;28;19916;-23
2022/05/31 04:49:17;;;;;;;;;;;;;;;6.98;62.27;100796.75;5065116;28;19919;-23
2022/05/31 04:51:43;;;;;;;;;;;;;;;7.01;62.42;100800.28;5067604;28;19951;-23
2022/05/31 04:54:08;;;;;;;;;;;;;;;7.05;62.59;100794.22;5065085;28;19947;-23
2022/05/31 04:56:33;;;;;;;;;;;;;;;7.11;62.30;100797.75;5065667;28;20046;-23
2022/05/31 04:58:59;;;;;;;;;;;;;;;7.16;62.19;100799.53;5064975;28;19913;-23
2022/05/31 05:01:24;;;;;;;;;;;;;;;7.19;62.43;100803.91;5066412;28;19996;-23
2022/05/31 05:03:50;;;;;;;;;;;;;;;7.20;62.39;100797.78;5067345;28;19922;-23
2022/05/31 05:06:15;;;;;;;;;;;;;;;7.21;62.05;100796.06;5069045;28;19928;-23
2022/05/31 05:08:41;;;;;;;;;;;;;;;7.24;62.42;100802.19;5068909;28;19908;-23
2022/05/31 05:11:09;;;;;;;;;;;;;;;7.27;62.56;100799.59;5069655;28;19916;-23
2022/05/31 05:13:34;;;;;;;;;;;;;;;7.28;62.77;100804.00;5067224;28;19924;-23
2022/05/31 05:16:00;;;;;;;;;;;;;;;7.32;62.29;100795.28;5068778;28;20288;-23
2022/05/31 05:18:25;;;;;;;;;;;;;;;7.37;62.45;100791.78;5067029;28;19913;-23
2022/05/31 05:20:50;;;;;;;;;;;;;;;7.42;62.48;100784.81;5068526;28;20501;-23
2022/05/31 05:23:16;;;;;;;;;;;;;;;7.47;62.46;100793.56;5070602;28;19919;-23
2022/05/31 05:25:41;;;;;;;;;;;;;;;7.52;62.59;100797.13;5069466;28;19912;-23
2022/05/31 05:30:50;;;;;;;;;;;;;;;7.64;63.29;100795.44;5068636;28;20049;-23
2022/05/31 05:33:16;;;;;;;;;;;;;;;7.70;63.13;100795.44;5065853;28;20014;-23
2022/05/31 05:35:41;;;;;;;;;;;;;;;7.75;63.10;100793.75;5066553;28;20027;-23
2022/05/31 05:38:07;;;;;;;;;;;;;;;7.78;62.83;100783.25;5066677;28;19999;-23
2022/05/31 05:40:33;;;;;;;;;;;;;;;7.85;62.79;100788.50;5066235;28;19913;-23
2022/05/31 05:42:58;;;;;;;;;;;;;;;7.89;62.86;100785.03;5066878;28;20324;-23
2022/05/31 05:45:23;;;;;;;;;;;;;;;7.95;62.91;100785.06;5067334;28;20388;-23
2022/05/31 05:47:49;;;;;;;;;;;;;;;8.01;62.95;100786.84;5068045;28;19931;-25
2022/05/31 05:50:14;;;;;;;;;;;;;;;8.05;62.95;100780.72;5065335;28;19928;-23
2022/05/31 05:52:39;;;;;;;;;;;;;;;8.12;63.30;100784.22;5065849;28;19920;-23
2022/05/31 05:55:05;;;;;;;;;;;;;;;8.18;63.54;100781.63;5066789;28;19916;-23
2022/05/31 05:57:30;;;;;;;;;;;;;;;8.25;64.36;100777.25;5068989;28;19909;-23
2022/05/31 05:59:55;;;;;;;;;;;;;;;8.31;63.94;100783.41;5068459;28;19915;-23
2022/05/31 06:02:30;;;;;;;;;;;;;;;8.39;63.95;100782.53;5068361;28;20375;-23
2022/05/31 06:05:00;;;;;;;;;;;;;;;8.48;65.64;100775.53;5064055;28;19912;-24
2022/05/31 06:07:32;;;;;;;;;;;;;;;8.55;63.79;100779.09;5065981;28;20460;-23
2022/05/31 06:09:59;;;;;;;;;;;;;;;8.65;63.56;100787.00;5066954;28;20035;-23
2022/05/31 06:12:25;;;;;;;;;;;;;;;8.71;64.26;100785.22;5066852;28;19912;-23
2022/05/31 06:15:01;;;;;;;;;;;;;;;8.81;65.05;100786.09;5068924;28;19916;-23
2022/05/31 06:17:27;;;;;;;;;;;;;;;8.91;64.35;100780.88;5064914;28;19916;-23
2022/05/31 06:19:52;;;;;;;;;;;;;;;8.97;66.91;100779.09;5062532;28;19998;-23
2022/05/31 06:22:18;;;;;;;;;;;;;;;9.04;64.85;100779.97;5065674;28;19920;-23
2022/05/31 06:24:43;;;;;;;;;;;;;;;9.13;64.84;100791.38;5069070;28;19912;-23
2022/05/31 06:27:09;;;;;;;;;;;;;;;9.20;64.24;100785.19;5067678;28;19913;-23
2022/05/31 06:29:34;;;;;;;;;;;;;;;9.29;63.76;100779.94;5069315;28;19912;-23
2022/05/31 06:31:59;;;;;;;;;;;;;;;9.39;64.64;100775.53;5069118;28;20356;-23
2022/05/31 06:34:24;;;;;;;;;;;;;;;9.52;64.38;100775.47;5069185;28;19919;-23
2022/05/31 06:37:00;;;;;;;;;;;;;;;9.61;63.75;100771.06;5068164;28;19918;-23
2022/05/31 06:39:26;;;;;;;;;;;;;;;9.73;64.00;100777.16;5062557;28;20379;-23
2022/05/31 06:41:54;;;;;;;;;;;;;;;9.89;63.59;100775.34;5068123;28;19918;-23
2022/05/31 06:44:19;;;;;;;;;;;;;;;10.01;63.40;100777.06;5064849;28;19923;-23
2022/05/31 06:46:45;;;;;;;;;;;;;;;10.17;64.34;100763.81;5066728;28;19913;-23
2022/05/31 06:49:10;;;;;;;;;;;;;;;10.29;63.63;100774.25;5070509;28;19920;-23
2022/05/31 06:57:03;;;;;;;;;;;;;;;10.73;63.75;100776.59;5069612;28;19999;-23
2022/05/31 06:59:28;;;;;;;;;;;;;;;10.87;64.00;100772.09;5068535;28;20014;-23
2022/05/31 07:02:03;;;;;;;;;;;;;;;11.00;63.67;100769.34;5067758;28;20292;-23
2022/05/31 07:04:28;;;;;;;;;;;;;;;11.14;63.50;100764.81;5067856;28;19908;-23
2022/05/31 07:06:53;;;;;;;;;;;;;;;11.31;63.11;100761.13;5067703;28;19922;-23
2022/05/31 07:09:18;;;;;;;;;;;;;;;11.46;62.65;100761.84;5066346;28;19923;-23
2022/05/31 07:11:44;;;;;;;;;;;;;;;11.57;62.88;100759.09;5066787;28;19972;-23
2022/05/31 07:14:09;;;;;;;;;;;;;;;11.75;62.69;100756.22;5068997;28;20011;-23
2022/05/31 07:16:34;;;;;;;;;;;;;;;11.87;62.64;100752.53;5068457;28;20003;-23
2022/05/31 07:18:59;;;;;;;;;;;;;;;12.03;62.59;100760.25;5068294;28;19984;-23
2022/05/31 07:21:25;;;;;;;;;;;;;;;12.18;62.54;100757.41;5068826;28;20367;-23
2022/05/31 07:23:53;;;;;;;;;;;;;;;12.34;62.04;100749.25;5068717;28;19964;-23
2022/05/31 07:26:20;;;;;;;;;;;;;;;12.48;62.32;100745.53;5068135;28;20089;-23
2022/05/31 07:28:45;;;;;;;;;;;;;;;12.58;61.68;100745.34;5068958;28;19909;-23
2022/05/31 07:31:10;;;;;;;;;;;;;;;12.68;61.45;100748.72;5067110;28;19913;-23
2022/05/31 07:33:35;;;;;;;;;;;;;;;12.78;61.60;100753.88;5068654;28;19919;-23
2022/05/31 07:36:04;;;;;;;;;;;;;;;12.90;61.61;100748.34;5068840;28;19915;-23
2022/05/31 07:38:29;;;;;;;;;;;;;;;13.04;61.91;100749.91;5067059;28;19908;-23
2022/05/31 07:40:54;;;;;;;;;;;;;;;13.18;62.05;100758.44;5068718;28;20439;-23
2022/05/31 07:43:20;;;;;;;;;;;;;;;13.32;61.86;100754.66;5071630;28;19958;-23
2022/05/31 07:45:45;;;;;;;;;;;;;;;13.46;61.07;100746.44;5071835;28;19966;-23
2022/05/31 07:48:10;;;;;;;;;;;;;;;13.59;61.71;100749.75;5072351;28;19915;-23
2022/05/31 07:50:36;;;;;;;;;;;;;;;13.71;61.56;100751.28;5069530;28;19966;-23
2022/05/31 07:53:01;;;;;;;;;;;;;;;13.82;60.93;100745.75;5068081;28;20295;-23
2022/05/31 07:55:28;;;;;;;;;;;;;;;13.93;60.36;100741.09;5069547;28;20299;-23
2022/05/31 08:00:37;;;;;;;;;;;;;;;14.11;60.05;100742.44;5071460;28;19927;-24
2022/05/31 08:03:02;;;;;;;;;;;;;;;14.24;59.94;100739.53;5071744;28;19912;-23
2022/05/31 08:05:29;;;;;;;;;;;;;;;14.36;59.91;100738.34;5069804;28;19917;-23
2022/05/31 08:07:54;;;;;;;;;;;;;;;14.56;60.44;100736.97;5069718;28;20406;-23
2022/05/31 08:10:20;;;;;;;;;;;;;;;14.72;60.00;100729.53;5069991;28;19916;-23
2022/05/31 08:12:45;;;;;;;;;;;;;;;14.83;59.02;100726.59;5069506;28;19996;-23
2022/05/31 08:15:11;;;;;;;;;;;;;;;14.97;59.70;100729.78;5067684;28;19999;-23
2022/05/31 08:17:36;;;;;;;;;;;;;;;15.12;59.15;100740.91;5064508;28;20387;-24
2022/05/31 08:20:03;;;;;;;;;;;;;;;15.24;59.30;100719.31;5066683;28;19916;-23
2022/05/31 08:22:29;;;;;;;;;;;;;;;15.37;59.30;100716.31;5071427;28;19912;-23
2022/05/31 08:24:54;;;;;;;;;;;;;;;15.49;58.72;100715.09;5070992;28;19923;-23
2022/05/31 08:27:19;;;;;;;;;;;;;;;15.66;58.75;100711.94;5071271;28;19921;-23
2022/05/31 08:29:45;;;;;;;;;;;;;;;15.81;58.56;100715.06;5068961;28;20318;-23
2022/05/31 08:32:10;;;;;;;;;;;;;;;15.96;58.29;100722.59;5068672;28;20360;-23
2022/05/31 08:34:35;;;;;;;;;;;;;;;16.10;58.38;100713.28;5070468;28;19951;-23
2022/05/31 08:37:01;;;;;;;;;;;;;;;16.26;58.12;100719.88;5071935;28;19964;-23
2022/05/31 08:39:26;;;;;;;;;;;;;;;16.37;57.26;100705.38;5071413;28;20015;-23
2022/05/31 08:41:52;;;;;;;;;;;;;;;16.48;57.48;100705.00;5070014;28;19908;-23
2022/05/31 08:44:20;;;;;;;;;;;;;;;16.61;57.57;100700.13;5070769;28;19917;-23
2022/05/31 08:46:48;;;;;;;;;;;;;;;16.72;57.50;100691.78;5070333;28;19998;-23
2022/05/31 08:51:52;;;;;;;;;;;;;;;16.84;56.97;100691.31;5069900;28;20299;-24
2022/05/31 08:52:17;;;;;;;;;;;;;;;16.97;56.86;100673.13;5067721;28;19919;-23
2022/05/31 08:57:50;;;;;;;;;;;;;;;17.27;56.61;100682.78;5064755;28;20333;-23
2022/05/31 09:00:16;;;;;;;;;;;;;;;17.43;56.53;100677.72;5059683;28;20003;-23
2022/05/31 09:02:52;;;;;;;;;;;;;;;17.55;56.49;100669.22;5067475;28;19920;-23
2022/05/31 09:05:20;;;;;;;;;;;;;;;17.67;56.25;100669.69;5070455;28;20372;-23
2022/05/31 09:07:46;;;;;;;;;;;;;;;17.82;55.95;100677.13;5067178;28;19912;-23
2022/05/31 09:10:13;;;;;;;;;;;;;;;17.93;56.04;100675.78;5067894;28;20272;-23
2022/05/31 09:12:44;;;;;;;;;;;;;;;18.08;55.87;100669.84;5070323;28;19908;-23
2022/05/31 09:15:17;;;;;;;;;;;;;;;18.18;55.35;100669.50;5070671;28;19924;-23
2022/05/31 09:18:02;;;;;;;;;;;;;;;18.32;55.76;100655.59;5070401;28;20023;-23
2022/05/31 09:20:33;;;;;;;;;;;;;;;18.42;55.12;100667.63;5070359;28;20286;-23
2022/05/31 09:22:59;;;;;;;;;;;;;;;18.54;55.07;100666.22;5066571;28;19920;-24
2022/05/31 09:25:24;;;;;;;;;;;;;;;18.67;54.98;100666.56;5069466;28;19916;-24
2022/05/31 09:27:51;;;;;;;;;;;;;;;18.81;54.80;100657.09;5066276;28;19928;-23
2022/05/31 09:30:26;;;;;;;;;;;;;;;18.93;54.49;100652.97;5068512;28;19939;-23
2022/05/31 09:33:07;;;;;;;;;;;;;;;19.05;53.62;100643.56;5065542;28;19912;-23
2022/05/31 09:35:47;;;;;;;;;;;;;;;19.12;53.32;100644.16;5063114;28;19916;-24
2022/05/31 09:38:21;;;;;;;;;;;;;;;19.25;53.95;100634.66;5068743;28;19912;-24
2022/05/31 09:40:47;;;;;;;;;;;;;;;19.40;54.02;100642.91;5067158;28;19908;-23
2022/05/31 09:43:32;;;;;;;;;;;;;;;19.49;53.23;100645.16;5069709;28;19912;-24
2022/05/31 09:45:58;;;;;;;;;;;;;;;19.62;53.86;100637.41;5067466;28;19956;-23
2022/05/31 09:48:23;;;;;;;;;;;;;;;19.75;53.79;100626.97;5066576;28;19985;-24
2022/05/31 09:50:49;;;;;;;;;;;;;;;19.84;53.55;100634.53;5068087;28;20288;-24
2022/05/31 09:58:44;;;;;;;;;;;;;;;20.18;52.43;100620.47;5068105;28;19915;-23
2022/05/31 10:01:15;;;;;;;;;;;;;;;20.25;51.87;100614.72;5067710;28;19913;-23
2022/05/31 10:03:44;;;;;;;;;;;;;;;20.33;51.54;100622.38;5067341;28;19908;-23
2022/05/31 10:06:12;;;;;;;;;;;;;;;20.41;51.47;100624.66;5069285;28;20363;-23
2022/05/31 10:08:38;;;;;;;;;;;;;;;20.51;50.85;100614.34;5067664;28;20013;-23
2022/05/31 10:11:11;;;;;;;;;;;;;;;20.56;50.74;100612.28;5069208;28;20384;-23
2022/05/31 10:13:37;;;;;;;;;;;;;;;20.71;51.02;100602.56;5070174;28;20011;-23
2022/05/31 10:16:10;;;;;;;;;;;;;;;20.84;50.91;100604.59;5069163;28;19916;-23
2022/05/31 10:18:44;;;;;;;;;;;;;;;20.97;50.73;100594.13;5068126;28;19965;-23
2022/05/31 10:21:11;;;;;;;;;;;;;;;21.14;50.57;100602.09;5069302;28;19913;-23
2022/05/31 10:23:46;;;;;;;;;;;;;;;21.17;50.19;100594.84;5067912;28;19962;-24
2022/05/31 10:26:25;;;;;;;;;;;;;;;21.17;49.63;100584.94;5066704;28;20483;-23
2022/05/31 10:28:56;;;;;;;;;;;;;;;21.22;49.28;100582.03;5069681;28;20050;-24
2022/05/31 10:31:47;;;;;;;;;;;;;;;21.30;48.69;100581.63;5064456;28;19916;-23
2022/05/31 10:34:31;;;;;;;;;;;;;;;21.41;49.30;100585.41;5065644;28;19999;-24
2022/05/31 10:36:56;;;;;;;;;;;;;;;21.63;49.09;100586.88;5067757;28;20086;-24
2022/05/31 10:39:23;;;;;;;;;;;;;;;21.84;48.56;100586.59;5067445;28;20431;-24
2022/05/31 10:41:49;;;;;;;;;;;;;;;21.88;48.29;100587.31;5066163;28;19917;-24
2022/05/31 10:44:17;;;;;;;;;;;;;;;21.89;47.75;100570.25;5066174;28;19916;-23
2022/05/31 10:46:43;;;;;;;;;;;;;;;21.93;47.80;100569.09;5065408;28;19909;-24
2022/05/31 10:49:18;;;;;;;;;;;;;;;22.00;47.44;100566.91;5064729;28;19962;-24
2022/05/31 10:51:54;;;;;;;;;;;;;;;22.07;47.37;100556.69;5067850;28;19923;-24
2022/05/31 10:54:20;;;;;;;;;;;;;;;;;;5065269;28;19966;-24
2022/05/31 10:56:49;;;;;;;;;;;;;;;22.18;45.21;100557.75;5066792;28;20314;-23
2022/05/31 10:59:16;;;;;;;;;;;;;;;22.20;45.96;100551.44;5067361;28;19958;-24
2022/05/31 11:02:03;;;;;;;;;;;;;;;22.16;45.73;100554.31;5068645;28;19934;-24
2022/05/31 11:04:34;;;;;;;;;;;;;;;22.30;45.41;100549.91;5068338;28;19912;-24
2022/05/31 11:07:13;;;;;;;;;;;;;;;22.27;45.22;100545.59;5067996;28;19969;-24
2022/05/31 11:12:32;;;;;;;;;;;;;;;22.29;45.56;100532.06;5066669;28;19915;-24
2022/05/31 11:14:57;;;;;;;;;;;;;;;22.34;45.11;100531.81;5066137;28;19919;-24
2022/05/31 11:17:35;;;;;;;;;;;;;;;22.36;45.36;100533.44;5072168;28;19912;-24
2022/05/31 11:20:00;;;;;;;;;;;;;;;22.39;44.26;100527.88;5071746;28;19991;-24
2022/05/31 11:22:46;;;;;;;;;;;;;;;22.39;44.49;100530.56;5072747;28;19992;-24
2022/05/31 11:25:52;;;;;;;;;;;;;;;22.56;44.67;100526.00;5071349;28;19963;-24
2022/05/31 11:28:27;;;;;;;;;;;;;;;22.65;44.96;100520.06;5028624;28;19955;-24
2022/05/31 11:30:57;;;;;;;;;;;;;;;22.70;44.65;100516.22;5010765;28;19909;-24
2022/05/31 11:33:28;;;;;;;;;;;;;;;22.71;43.52;100507.19;5049635;28;20294;-24
2022/05/31 11:35:54;;;;;;;;;;;;;;;22.80;43.81;100507.47;5071428;28;19922;-24
2022/05/31 11:38:34;;;;;;;;;;;;;;;22.82;43.70;100520.81;5073168;28;19913;-24
2022/05/31 11:41:00;;;;;;;;;;;;;;;22.90;43.39;100521.19;5073102;28;20394;-24
2022/05/31 11:43:34;;;;;;;;;;;;;;;22.98;43.56;100525.19;5072692;28;19999;-24
2022/05/31 11:46:02;;;;;;;;;;;;;;;23.07;42.31;100528.16;5072507;28;19916;-24
2022/05/31 11:48:34;;;;;;;;;;;;;;;23.15;42.42;100527.69;5073030;28;19908;-24
2022/05/31 11:51:05;;;;;;;;;;;;;;;23.25;41.55;100519.88;5072946;28;19920;-24
2022/05/31 11:53:40;;;;;;;;;;;;;;;23.23;41.80;100518.22;5072619;28;20383;-24
2022/05/31 11:56:06;;;;;;;;;;;;;;;23.24;41.76;100511.91;5068748;28;20391;-23
2022/05/31 11:58:34;;;;;;;;;;;;;;;23.29;42.00;100512.44;5068102;28;19969;-24
2022/05/31 12:01:19;;;;;;;;;;;;;;;23.36;41.79;100516.50;5071341;28;19965;-24
2022/05/31 12:03:47;;;;;;;;;;;;;;;23.41;42.56;100506.28;5072783;28;19912;-24
2022/05/31 12:06:22;;;;;;;;;;;;;;;23.41;42.20;100514.34;5069228;28;20372;-24
2022/05/31 12:08:48;;;;;;;;;;;;;;;23.49;43.24;100510.31;5070926;28;20050;-24
2022/05/31 12:11:23;;;;;;;;;;;;;;;23.55;43.26;100512.59;5070731;28;20002;-24
2022/05/31 12:13:48;;;;;;;;;;;;;;;23.64;42.79;100497.66;5069495;28;19969;-23
2022/05/31 12:16:14;;;;;;;;;;;;;;;23.68;43.39;100507.25;5067472;28;20295;-24
2022/05/31 12:18:45;;;;;;;;;;;;;;;23.77;42.94;100505.78;5063053;28;19941;-24
2022/05/31 12:21:13;;;;;;;;;;;;;;;23.88;43.89;100497.81;5070146;28;19942;-24
2022/05/31 12:23:44;;;;;;;;;;;;;;;24.04;42.78;100499.47;5066549;28;20287;-24
2022/05/31 12:26:21;;;;;;;;;;;;;;;24.03;43.03;100490.50;5069739;28;19916;-24
2022/05/31 12:28:50;;;;;;;;;;;;;;;24.04;42.01;100480.59;5068136;28;19916;-24
2022/05/31 12:31:19;;;;;;;;;;;;;;;24.09;43.10;100478.44;5070088;28;19920;-23
2022/05/31 12:33:46;;;;;;;;;;;;;;;24.27;41.09;100486.25;5069858;28;19920;-24
2022/05/31 12:36:12;;;;;;;;;;;;;;;24.40;40.66;100487.09;5069734;28;20328;-24
2022/05/31 12:39:06;;;;;;;;;;;;;;;24.52;39.68;100476.41;5065701;28;20007;-24
2022/05/31 12:41:37;;;;;;;;;;;;;;;24.58;39.05;100484.91;5054801;28;19942;-23
2022/05/31 12:44:07;;;;;;;;;;;;;;;24.56;39.62;100486.00;5067072;28;19958;-24
2022/05/31 12:46:32;;;;;;;;;;;;;;;24.55;38.91;100487.84;5067030;28;19920;-24
2022/05/31 12:48:59;;;;;;;;;;;;;;;24.53;38.77;100480.81;5068836;28;19916;-24
2022/05/31 12:51:24;;;;;;;;;;;;;;;24.39;39.91;100477.28;5046816;28;19918;-24
2022/05/31 12:53:49;;;;;;;;;;;;;;;24.33;40.70;100475.91;5064510;28;20451;-24
2022/05/31 12:56:30;;;;;;;;;;;;;;;24.46;39.26;100475.03;5068248;28;19920;-24
2022/05/31 12:58:55;;;;;;;;;;;;;;;24.54;39.61;100477.19;5069482;28;19920;-24
2022/05/31 13:01:24;;;;;;;;;;;;;;;24.58;39.08;100478.69;5070524;28;19966;-24
2022/05/31 13:03:49;;;;;;;;;;;;;;;24.56;39.15;100464.44;5069508;28;19916;-24
2022/05/31 13:06:15;;;;;;;;;;;;;;;24.57;39.01;100469.72;5066728;28;19965;-24
2022/05/31 13:08:57;;;;;;;;;;;;;;;24.59;37.72;100461.53;5061449;28;20442;-24